Armourdale, North Dakota
Current Conditions -  °F | °C
As of 10:15 AM on Wednesday 22 Oct 2014 (Local Time) from K06D Reporting Station
Clear Clear  
Wind Chill: 54°   Ceiling: Unl
Heat Index: 54°   Visibility: 10mi
Dew Point: 45°   Wind: 15mph
Humidity: 72%   Direction: 240°WSW
Pressure: 29.71"   Gusts: 18mph
Location:  48.8584°N, 99.1311°W
Report Text: K06D 221515Z AUTO 24013G16KT 10SM CLR 12/07 A2971 RMK AO2
Loading
Personal Weather Stations






























Interactive Weather Map
Tropical Storm Tracking
New forecast layout! Learn more

10-Day Weather Forecast

Advertisements
Track Severe Weather on mobile